createdAt,value
2022-08-07T00:02:37.513Z,13.38
2022-08-07T00:05:34.523Z,11.73
2022-08-07T00:09:21.184Z,15.45
2022-08-07T00:13:23.562Z,11.73
2022-08-07T00:17:07.843Z,11.27
2022-08-07T00:20:50.092Z,6.82
2022-08-07T00:24:31.984Z,10.68
2022-08-07T00:28:14.026Z,10.65
2022-08-07T00:31:59.658Z,8.43
2022-08-07T00:35:42.829Z,11.85
2022-08-07T00:39:27.297Z,12.85
2022-08-07T00:43:59.829Z,10.95
2022-08-07T00:48:07.867Z,5.35
2022-08-07T00:51:17.642Z,7.82
2022-08-07T00:54:59.637Z,6.30
2022-08-07T00:58:49.536Z,10.52
2022-08-07T01:02:32.538Z,9.32
2022-08-07T01:06:15.869Z,9.88
2022-08-07T01:10:06.253Z,6.88
2022-08-07T01:13:55.971Z,8.18
2022-08-07T01:17:38.200Z,11.88
2022-08-07T01:21:25.895Z,9.68
2022-08-07T01:25:40.023Z,10.25
2022-08-07T01:29:13.675Z,12.80
2022-08-07T01:32:57.070Z,10.10
2022-08-07T01:36:40.849Z,9.35
2022-08-07T01:40:24.823Z,13.00
2022-08-07T01:44:06.911Z,9.70
2022-08-07T01:48:20.014Z,8.25
2022-08-07T01:52:03.110Z,8.60
2022-08-07T01:55:50.641Z,8.80
2022-08-07T01:59:54.571Z,8.02
2022-08-07T02:03:42.729Z,9.38
2022-08-07T02:07:53.537Z,11.38
2022-08-07T02:12:02.681Z,11.27
2022-08-07T02:15:42.133Z,9.43
2022-08-07T02:20:04.501Z,8.30
2022-08-07T02:23:27.731Z,9.85
2022-08-07T02:27:10.982Z,8.25
2022-08-07T02:30:56.429Z,16.20
2022-08-07T02:34:50.977Z,15.20
2022-08-07T02:38:37.740Z,18.70
2022-08-07T02:42:20.633Z,13.80
2022-08-07T02:46:05.939Z,8.32
2022-08-07T02:49:58.349Z,7.72
2022-08-07T02:53:43.965Z,6.00
2022-08-07T02:57:31.010Z,7.80
2022-08-07T03:01:19.048Z,6.47
2022-08-07T03:05:20.707Z,5.28
2022-08-07T03:09:07.685Z,8.35
2022-08-07T03:12:53.880Z,8.05
2022-08-07T03:16:38.490Z,15.70
2022-08-07T03:20:20.643Z,12.27
2022-08-07T03:24:19.719Z,29.75
2022-08-07T03:28:09.576Z,8.27
2022-08-07T03:32:13.337Z,7.55
2022-08-07T03:35:55.527Z,5.88
2022-08-07T03:39:59.006Z,7.50
2022-08-07T03:43:44.103Z,3.78
2022-08-07T03:47:47.791Z,3.75
2022-08-07T03:51:47.168Z,5.65
2022-08-07T03:55:52.991Z,5.28
2022-08-07T03:59:33.091Z,6.05
2022-08-07T04:03:15.370Z,6.93
2022-08-07T04:06:57.749Z,9.05
2022-08-07T04:10:43.375Z,7.05
2022-08-07T04:14:43.941Z,10.40
2022-08-07T04:18:57.256Z,9.32
2022-08-07T04:22:31.472Z,8.52
2022-08-07T04:26:16.819Z,9.85
2022-08-07T04:33:56.677Z,6.38
2022-08-07T04:38:01.116Z,7.63
2022-08-07T04:41:42.480Z,9.77
2022-08-07T04:46:01.276Z,21.65
2022-08-07T04:50:03.572Z,7.10
2022-08-07T04:54:06.067Z,6.82
2022-08-07T04:58:15.999Z,6.75
2022-08-07T05:02:16.647Z,8.25
2022-08-07T05:06:19.237Z,8.10
2022-08-07T05:10:24.139Z,6.78
2022-08-07T05:14:53.517Z,7.25
2022-08-07T05:18:54.685Z,8.10
2022-08-07T05:22:39.985Z,7.73
2022-08-07T05:26:24.735Z,4.30
2022-08-07T05:30:07.816Z,9.20
2022-08-07T05:34:04.321Z,14.25
2022-08-07T05:37:47.580Z,8.90
2022-08-07T05:42:01.175Z,8.52
2022-08-07T05:45:46.978Z,7.40
2022-08-07T05:49:40.836Z,6.63
2022-08-07T05:54:12.224Z,9.68
2022-08-07T05:57:30.391Z,8.70
2022-08-07T06:01:21.830Z,3.75
2022-08-07T06:05:07.943Z,5.47
2022-08-07T06:08:54.713Z,5.03
2022-08-07T06:12:37.772Z,3.72
2022-08-07T06:16:22.574Z,7.53
2022-08-07T06:20:12.371Z,5.43
2022-08-07T06:24:52.234Z,4.88
2022-08-07T06:28:10.678Z,5.38
2022-08-07T06:31:56.714Z,5.65
2022-08-07T06:35:39.104Z,6.45
2022-08-07T06:40:16.544Z,3.72
2022-08-07T06:43:39.507Z,4.55
2022-08-07T06:47:22.262Z,4.25
2022-08-07T06:51:08.388Z,4.75
2022-08-07T06:55:33.158Z,4.00
2022-08-07T07:00:12.381Z,3.45
2022-08-07T07:02:57.788Z,3.78
2022-08-07T07:06:57.588Z,2.53
2022-08-07T07:10:54.965Z,5.38
2022-08-07T07:14:51.682Z,2.72
2022-08-07T07:18:47.789Z,5.43
2022-08-07T07:22:35.715Z,3.22
2022-08-07T07:26:33.003Z,3.22
2022-08-07T07:30:32.784Z,2.83
2022-08-07T07:34:32.049Z,7.93
2022-08-07T07:38:15.153Z,2.38
2022-08-07T07:42:12.857Z,3.35
2022-08-07T07:46:38.102Z,4.38
2022-08-07T07:50:33.699Z,2.92
2022-08-07T07:54:03.207Z,4.50
2022-08-07T07:57:53.710Z,3.42
2022-08-07T08:02:03.420Z,3.33
2022-08-07T08:05:54.297Z,3.65
2022-08-07T08:09:52.497Z,4.15
2022-08-07T08:13:53.867Z,3.13
2022-08-07T08:17:57.269Z,2.72
2022-08-07T08:22:03.147Z,3.95
2022-08-07T08:26:07.121Z,2.58
2022-08-07T08:29:54.532Z,4.35
2022-08-07T08:33:40.318Z,4.60
2022-08-07T08:38:00.550Z,3.40
2022-08-07T08:41:57.158Z,4.15
2022-08-07T08:46:01.033Z,6.25
2022-08-07T08:50:04.567Z,5.15
2022-08-07T08:53:56.483Z,2.80
2022-08-07T08:57:58.957Z,3.00
2022-08-07T09:01:49.193Z,4.43
2022-08-07T09:05:53.040Z,3.85
2022-08-07T09:09:56.654Z,4.47
2022-08-07T09:14:29.688Z,8.23
2022-08-07T09:18:36.709Z,5.47
2022-08-07T09:24:30.858Z,5.43
2022-08-07T09:27:24.914Z,4.60
2022-08-07T09:31:19.691Z,5.78
2022-08-07T09:36:02.852Z,6.03
2022-08-07T09:39:52.999Z,5.65
2022-08-07T09:44:05.871Z,4.07
2022-08-07T09:48:11.781Z,3.05
2022-08-07T09:52:33.531Z,7.03
2022-08-07T09:56:41.874Z,7.78
2022-08-07T10:00:32.652Z,4.22
2022-08-07T10:04:53.008Z,6.53
2022-08-07T10:09:15.280Z,3.88
2022-08-07T10:13:06.191Z,6.88
2022-08-07T10:17:23.022Z,3.05
2022-08-07T10:21:14.914Z,5.63
2022-08-07T10:25:07.616Z,9.75
2022-08-07T10:29:22.074Z,4.40
2022-08-07T10:33:19.109Z,3.78
2022-08-07T10:38:00.106Z,4.07
2022-08-07T10:41:53.147Z,4.78
2022-08-07T10:45:58.149Z,3.55
2022-08-07T10:49:50.918Z,2.50
2022-08-07T10:54:05.258Z,3.95
2022-08-07T10:58:33.023Z,3.90
2022-08-07T11:02:33.477Z,2.08
2022-08-07T11:06:28.890Z,4.30
2022-08-07T11:10:27.335Z,2.17
2022-08-07T11:14:44.699Z,3.20
2022-08-07T11:18:53.559Z,4.28
2022-08-07T11:22:45.847Z,4.90
2022-08-07T11:27:02.149Z,5.72
2022-08-07T11:30:56.081Z,10.07
2022-08-07T11:34:47.369Z,5.70
2022-08-07T11:38:50.497Z,2.20
2022-08-07T11:42:54.172Z,5.53
2022-08-07T11:46:41.505Z,3.67
2022-08-07T11:50:35.144Z,4.07
2022-08-07T11:54:41.127Z,7.13
2022-08-07T12:00:08.371Z,2.63
2022-08-07T12:03:45.675Z,2.97
2022-08-07T12:07:38.950Z,4.93
2022-08-07T12:11:32.523Z,1.40
2022-08-07T12:15:46.171Z,4.18
2022-08-07T12:19:22.072Z,6.20
2022-08-07T12:23:15.970Z,2.33
2022-08-07T12:27:27.964Z,3.25
2022-08-07T12:32:03.872Z,2.63
2022-08-07T12:35:58.145Z,2.72
2022-08-07T12:39:50.422Z,3.33
2022-08-07T12:44:04.167Z,2.75
2022-08-07T12:47:46.113Z,4.38
2022-08-07T12:52:11.870Z,3.63
2022-08-07T12:56:10.018Z,3.53
2022-08-07T12:59:56.019Z,4.10
2022-08-07T13:04:02.999Z,7.90
2022-08-07T13:08:11.929Z,2.95
2022-08-07T13:12:09.964Z,4.28
2022-08-07T13:16:07.268Z,1.85
2022-08-07T13:20:12.086Z,2.13
2022-08-07T13:24:20.071Z,1.30
2022-08-07T13:28:18.318Z,3.75
2022-08-07T13:32:31.348Z,3.20
2022-08-07T13:36:28.172Z,2.60
2022-08-07T13:40:35.012Z,1.83
2022-08-07T13:44:27.540Z,4.60
2022-08-07T13:48:27.857Z,4.43
2022-08-07T13:52:33.526Z,2.55
2022-08-07T13:56:34.971Z,1.88
2022-08-07T14:00:27.010Z,3.83
2022-08-07T14:04:12.137Z,2.35
2022-08-07T14:08:00.417Z,2.60
2022-08-07T14:12:07.255Z,1.65
2022-08-07T14:15:58.376Z,1.77
2022-08-07T14:20:41.648Z,2.47
2022-08-07T14:24:00.220Z,2.38
2022-08-07T14:28:11.080Z,4.18
2022-08-07T14:31:56.104Z,2.60
2022-08-07T14:35:43.609Z,3.58
2022-08-07T14:40:15.701Z,3.33
2022-08-07T14:43:59.200Z,3.45
2022-08-07T14:47:44.191Z,1.65
2022-08-07T14:52:04.820Z,5.45
2022-08-07T14:55:34.623Z,3.85
2022-08-07T15:00:03.300Z,1.92
2022-08-07T15:03:51.395Z,2.92
2022-08-07T15:07:46.325Z,3.05
2022-08-07T15:11:53.482Z,2.95
2022-08-07T15:15:43.849Z,1.92
2022-08-07T15:20:30.363Z,4.68
2022-08-07T15:25:02.950Z,1.38
2022-08-07T15:28:32.146Z,1.92
2022-08-07T15:36:01.147Z,3.08
2022-08-07T15:39:56.321Z,2.50
2022-08-07T15:43:55.600Z,2.50
2022-08-07T15:48:01.133Z,3.50
2022-08-07T15:55:53.984Z,3.77
2022-08-07T15:59:46.681Z,2.30
2022-08-07T16:03:46.360Z,1.58
2022-08-07T16:08:33.270Z,3.97
2022-08-07T16:11:56.717Z,1.48
2022-08-07T16:20:33.072Z,4.85
2022-08-07T16:24:34.201Z,1.80
2022-08-07T16:30:07.683Z,1.77
2022-08-07T16:34:02.861Z,3.13
2022-08-07T16:38:04.884Z,2.10
2022-08-07T16:42:04.153Z,1.17
2022-08-07T16:46:34.637Z,0.80
2022-08-07T16:51:21.647Z,1.55
2022-08-07T16:55:08.430Z,1.80
2022-08-07T16:59:10.912Z,2.35
2022-08-07T17:03:17.477Z,3.35
2022-08-07T17:07:51.510Z,3.40
2022-08-07T17:12:35.673Z,1.52
2022-08-07T17:16:16.356Z,2.95
2022-08-07T17:20:14.456Z,2.92
2022-08-07T17:24:18.113Z,6.20
2022-08-07T17:28:20.017Z,1.20
2022-08-07T17:32:30.380Z,1.75
2022-08-07T17:36:26.193Z,2.20
2022-08-07T17:40:30.397Z,1.70
2022-08-07T17:44:34.025Z,3.30
2022-08-07T17:49:09.097Z,1.30
2022-08-07T17:53:07.509Z,2.10
2022-08-07T17:56:59.102Z,1.30
2022-08-07T18:00:48.650Z,2.53
2022-08-07T18:04:52.390Z,2.38
2022-08-07T18:09:00.643Z,3.08
2022-08-07T18:13:06.879Z,3.63
2022-08-07T18:17:16.480Z,9.05
2022-08-07T18:21:53.498Z,3.78
2022-08-07T18:25:42.218Z,3.20
2022-08-07T18:30:06.532Z,2.33
2022-08-07T18:34:39.310Z,1.33
2022-08-07T18:38:56.298Z,3.65
2022-08-07T18:43:09.202Z,4.47
2022-08-07T18:47:01.586Z,1.55
2022-08-07T18:50:57.458Z,2.63
2022-08-07T18:55:08.364Z,2.53
2022-08-07T18:59:47.538Z,2.50
2022-08-07T19:03:37.948Z,2.63
2022-08-07T19:07:52.910Z,2.58
2022-08-07T19:12:04.681Z,5.65
2022-08-07T19:16:04.697Z,2.65
2022-08-07T19:20:06.518Z,3.30
2022-08-07T19:24:30.650Z,2.78
2022-08-07T19:28:58.449Z,4.70
2022-08-07T19:32:39.489Z,7.32
2022-08-07T19:36:28.102Z,2.60
2022-08-07T19:40:10.890Z,3.53
2022-08-07T19:43:59.927Z,2.67
2022-08-07T19:47:48.002Z,7.93
2022-08-07T19:51:51.701Z,5.55
2022-08-07T19:55:56.353Z,3.53
2022-08-07T19:59:42.016Z,5.75
2022-08-07T20:03:34.505Z,4.32
2022-08-07T20:07:23.663Z,3.67
2022-08-07T20:11:12.107Z,4.10
2022-08-07T20:14:58.852Z,3.13
2022-08-07T20:18:43.054Z,6.70
2022-08-07T20:22:34.404Z,5.70
2022-08-07T20:26:20.474Z,5.85
2022-08-07T20:30:14.253Z,2.72
2022-08-07T20:34:05.964Z,5.88
2022-08-07T20:37:59.246Z,6.35
2022-08-07T20:41:42.502Z,3.35
2022-08-07T20:45:33.474Z,5.18
2022-08-07T20:49:57.993Z,4.82
2022-08-07T20:54:04.369Z,2.88
2022-08-07T20:57:47.460Z,4.38
2022-08-07T21:01:45.583Z,8.85
2022-08-07T21:05:56.430Z,8.40
2022-08-07T21:09:52.528Z,6.20
2022-08-07T21:14:16.212Z,5.18
2022-08-07T21:18:06.534Z,6.43
2022-08-07T21:22:05.327Z,7.97
2022-08-07T21:29:56.716Z,8.32
2022-08-07T21:33:45.749Z,9.05
2022-08-07T21:37:57.993Z,9.10
2022-08-07T21:42:01.371Z,5.40
2022-08-07T21:46:07.806Z,5.65
2022-08-07T21:50:14.504Z,6.35
2022-08-07T21:54:04.189Z,5.50
2022-08-07T21:57:52.849Z,4.78
2022-08-07T22:02:10.340Z,5.95
2022-08-07T22:06:00.533Z,4.55
2022-08-07T22:09:53.743Z,10.48
2022-08-07T22:13:51.823Z,7.32
2022-08-07T22:17:44.187Z,5.37
2022-08-07T22:22:02.087Z,3.38
2022-08-07T22:26:13.322Z,9.18
2022-08-07T22:30:00.885Z,5.72
2022-08-07T22:33:56.450Z,7.38
2022-08-07T22:38:05.376Z,7.20
2022-08-07T22:42:19.277Z,6.75
2022-08-07T22:46:46.750Z,9.80
2022-08-07T22:50:33.335Z,8.85
2022-08-07T22:54:55.782Z,5.40
2022-08-07T22:59:10.326Z,7.63
2022-08-07T23:03:02.335Z,5.90
2022-08-07T23:06:56.540Z,8.18
2022-08-07T23:11:01.110Z,5.28
2022-08-07T23:19:38.807Z,7.63
2022-08-07T23:24:04.342Z,6.22
2022-08-07T23:27:33.899Z,5.03
2022-08-07T23:32:49.444Z,5.43
2022-08-07T23:35:38.746Z,6.45
2022-08-07T23:39:41.082Z,8.77
2022-08-07T23:43:26.209Z,7.75
2022-08-07T23:47:42.499Z,5.53
2022-08-07T23:53:16.959Z,9.32
2022-08-07T23:55:58.959Z,8.00
